Time;durP1;ratioP1;P1;durP2;ratioP2;P2;SDS_P1;SDS_P2;PMS_P1;PMS_P2;Temp;Humidity;BMP_temperature;BMP_pressure;BME280_temperature;BME280_humidity;BME280_pressure;Samples;Min_cycle;Max_cycle;Signal;HPM_P1;HPM_P2
2023/07/19 00:00:23;;;;;;;4.97;2.70;;;;;;;17.61;72.23;101511.19;7402064;19;19914;-68
2023/07/19 00:02:52;;;;;;;5.78;2.30;;;;;;;17.60;72.77;101517.69;7402192;19;19986;-68
2023/07/19 00:05:20;;;;;;;4.35;2.25;;;;;;;17.57;72.72;101518.09;7399942;19;19947;-68
2023/07/19 00:07:49;;;;;;;4.20;2.30;;;;;;;17.56;72.87;101515.59;7397566;19;20374;-68
2023/07/19 00:10:18;;;;;;;5.90;2.53;;;;;;;17.55;72.61;101519.34;7403060;19;20003;-68
2023/07/19 00:12:46;;;;;;;3.95;2.40;;;;;;;17.52;72.66;101514.28;7400555;19;20324;-68
2023/07/19 00:15:19;;;;;;;4.57;2.50;;;;;;;17.50;72.88;101509.06;7398974;19;19923;-68
2023/07/19 00:17:48;;;;;;;3.95;2.47;;;;;;;17.48;72.78;101505.69;7399142;19;19942;-67
2023/07/19 00:20:17;;;;;;;3.28;2.53;;;;;;;17.47;72.68;101503.19;7401778;19;21661;-68
2023/07/19 00:22:46;;;;;;;4.75;2.60;;;;;;;17.47;73.17;101497.75;7400563;19;19926;-68
2023/07/19 00:25:14;;;;;;;5.13;2.50;;;;;;;17.47;72.71;101489.59;7400202;19;19916;-68
2023/07/19 00:27:43;;;;;;;4.53;2.63;;;;;;;17.44;72.84;101485.38;7399601;19;20739;-68
2023/07/19 00:30:14;;;;;;;6.97;2.63;;;;;;;17.43;72.70;101482.88;7400689;19;19954;-67
2023/07/19 00:32:46;;;;;;;5.85;2.90;;;;;;;17.40;73.07;101477.81;7399151;19;19942;-68
2023/07/19 00:35:14;;;;;;;;;;;;;;;17.14;74.08;101478.59;7401928;19;19971;-67
2023/07/19 00:37:43;;;;;;;5.55;3.10;;;;;;;17.28;73.47;101474.88;7399213;19;19974;-69
2023/07/19 00:40:13;;;;;;;6.57;2.65;;;;;;;17.30;73.15;101477.41;7399735;19;19918;-68
2023/07/19 00:42:41;;;;;;;5.30;2.70;;;;;;;17.30;73.21;101478.22;7399996;19;19946;-67
2023/07/19 00:45:11;;;;;;;5.32;2.95;;;;;;;17.29;73.31;101482.00;7400151;19;19994;-68
2023/07/19 00:47:41;;;;;;;4.00;2.35;;;;;;;17.26;73.42;101476.13;7398833;19;19930;-68
2023/07/19 00:50:13;;;;;;;4.47;2.78;;;;;;;17.24;73.77;101473.59;7400613;19;19914;-68
2023/07/19 00:52:43;;;;;;;5.93;3.03;;;;;;;17.23;73.37;101475.47;7398863;19;19923;-67
2023/07/19 00:55:12;;;;;;;7.88;3.10;;;;;;;17.20;73.68;101475.91;7396896;19;19947;-67
2023/07/19 00:57:40;;;;;;;3.10;2.53;;;;;;;17.18;73.89;101468.97;7398362;19;19922;-68
2023/07/19 01:00:10;;;;;;;3.72;2.72;;;;;;;17.17;73.77;101461.88;7397956;19;20344;-68
2023/07/19 01:02:39;;;;;;;3.83;2.53;;;;;;;17.15;73.94;101470.22;7399791;19;19929;-67
2023/07/19 01:05:09;;;;;;;5.65;3.03;;;;;;;17.13;74.31;101466.84;7398098;19;19927;-69
2023/07/19 01:07:40;;;;;;;4.47;2.88;;;;;;;17.09;74.74;101454.69;7398561;19;19978;-68
2023/07/19 01:10:10;;;;;;;6.43;3.55;;;;;;;17.08;74.28;101461.22;7398751;19;19919;-68
2023/07/19 01:12:38;;;;;;;3.72;2.80;;;;;;;17.06;75.04;101454.28;7398823;19;19950;-68
2023/07/19 01:15:09;;;;;;;5.32;3.20;;;;;;;17.04;75.14;101457.19;7397186;19;19930;-68
2023/07/19 01:17:38;;;;;;;5.20;2.75;;;;;;;16.99;74.93;101462.44;7395582;19;19927;-67
2023/07/19 01:20:08;;;;;;;5.65;3.40;;;;;;;16.97;74.99;101450.91;7399164;19;19922;-67
2023/07/19 01:22:42;;;;;;;5.20;2.70;;;;;;;16.98;75.27;101452.59;7399214;19;19918;-67
2023/07/19 01:25:11;;;;;;;7.32;2.95;;;;;;;16.99;75.12;101453.44;7396740;19;19926;-68
2023/07/19 01:27:39;;;;;;;5.28;3.05;;;;;;;16.97;75.34;101455.50;7397338;19;19930;-67
2023/07/19 01:30:10;;;;;;;5.43;3.17;;;;;;;16.95;75.33;101455.72;7397777;19;19930;-68
2023/07/19 01:32:39;;;;;;;7.18;3.70;;;;;;;16.93;75.46;101454.25;7397241;19;20587;-68
2023/07/19 01:35:08;;;;;;;4.97;3.15;;;;;;;16.87;75.11;101453.16;7398419;19;19935;-67
2023/07/19 01:37:36;;;;;;;7.22;3.30;;;;;;;16.85;75.49;101446.25;7396691;19;19919;-68
2023/07/19 01:40:12;;;;;;;8.15;3.47;;;;;;;16.81;75.72;101437.66;7399709;19;19943;-68
2023/07/19 01:42:40;;;;;;;9.35;2.92;;;;;;;16.79;75.74;101443.31;7398262;19;19923;-67
2023/07/19 01:45:10;;;;;;;3.97;2.90;;;;;;;16.82;76.12;101443.97;7397567;19;23193;-68
2023/07/19 01:47:39;;;;;;;5.35;3.80;;;;;;;16.81;75.66;101445.84;7398430;19;19922;-68
2023/07/19 01:50:08;;;;;;;5.72;3.10;;;;;;;16.82;75.81;101439.34;7398794;19;20288;-68
2023/07/19 01:52:38;;;;;;;6.95;3.13;;;;;;;16.81;76.04;101434.94;7396990;19;19934;-68
2023/07/19 01:55:10;;;;;;;5.25;3.40;;;;;;;16.80;76.38;101433.25;7398764;19;19922;-67
2023/07/19 01:57:39;;;;;;;4.03;3.53;;;;;;;16.80;76.42;101430.53;7396516;19;20039;-67
2023/07/19 02:00:09;;;;;;;6.25;3.50;;;;;;;16.78;76.52;101425.28;7397790;19;19950;-68
2023/07/19 02:02:38;;;;;;;6.15;2.97;;;;;;;16.74;77.02;101415.84;7398197;19;19930;-67
2023/07/19 02:05:07;;;;;;;6.25;3.30;;;;;;;16.76;76.77;101410.22;7397348;19;19931;-68
2023/07/19 02:07:36;;;;;;;5.22;3.83;;;;;;;16.76;76.89;101418.38;7397347;19;19957;-68
2023/07/19 02:10:05;;;;;;;6.60;3.10;;;;;;;16.73;77.39;101413.38;7398472;19;20357;-68
2023/07/19 02:12:36;;;;;;;7.28;3.47;;;;;;;16.74;77.22;101410.41;7396832;19;20329;-68
2023/07/19 02:15:05;;;;;;;6.97;4.00;;;;;;;16.74;76.58;101406.84;7394720;19;20008;-68
2023/07/19 02:17:33;;;;;;;5.32;3.83;;;;;;;16.73;77.01;101395.16;7397930;19;19919;-68
2023/07/19 02:20:02;;;;;;;4.05;3.25;;;;;;;16.72;77.02;101392.63;7397010;19;20285;-68
2023/07/19 02:22:31;;;;;;;5.18;3.72;;;;;;;16.71;76.93;101399.94;7398828;19;19915;-68
2023/07/19 02:24:59;;;;;;;8.23;4.20;;;;;;;16.71;76.67;101401.84;7396681;19;19918;-68
2023/07/19 02:27:28;;;;;;;7.18;3.90;;;;;;;16.73;76.76;101400.59;7395869;19;20304;-68
2023/07/19 02:29:59;;;;;;;8.00;4.20;;;;;;;16.73;77.01;101392.44;7401094;19;19926;-68
2023/07/19 02:32:28;;;;;;;7.68;3.90;;;;;;;16.72;76.89;101393.47;7407514;19;19927;-67
2023/07/19 02:34:56;;;;;;;6.45;4.57;;;;;;;16.72;77.09;101403.50;7402341;19;19922;-68
2023/07/19 02:37:25;;;;;;;6.32;4.10;;;;;;;16.72;76.50;101398.06;7404898;19;20186;-68
2023/07/19 02:39:54;;;;;;;7.90;3.97;;;;;;;16.71;76.21;101389.06;7399552;19;19974;-68
2023/07/19 02:42:22;;;;;;;6.90;3.85;;;;;;;16.72;77.00;101392.63;7405248;19;20418;-68
2023/07/19 02:44:52;;;;;;;7.80;3.90;;;;;;;16.72;76.82;101382.59;7401062;19;19925;-68
2023/07/19 02:47:23;;;;;;;8.07;4.03;;;;;;;16.74;77.15;101382.38;7404249;19;19926;-68
2023/07/19 02:49:52;;;;;;;6.18;3.85;;;;;;;16.71;77.21;101380.91;7401523;19;20289;-68
2023/07/19 02:52:21;;;;;;;7.80;4.07;;;;;;;16.71;76.57;101389.06;7403181;19;19919;-69
2023/07/19 02:54:50;;;;;;;10.25;4.15;;;;;;;16.71;76.57;101386.34;7402022;19;20146;-69
2023/07/19 02:57:19;;;;;;;7.30;4.22;;;;;;;16.72;76.92;101381.75;7403653;19;20071;-69
2023/07/19 02:59:47;;;;;;;5.25;3.88;;;;;;;16.71;76.84;101380.06;7399855;19;19922;-69
2023/07/19 03:02:16;;;;;;;8.18;4.40;;;;;;;16.71;77.56;101375.47;7403694;19;19918;-68
2023/07/19 03:04:47;;;;;;;5.68;3.85;;;;;;;16.72;77.32;101376.31;7402942;19;19933;-68
2023/07/19 03:07:16;;;;;;;8.35;4.25;;;;;;;16.70;77.23;101370.22;7402627;19;19918;-69
2023/07/19 03:09:44;;;;;;;6.47;3.78;;;;;;;16.67;77.69;101365.19;7400286;19;20649;-68
2023/07/19 03:12:13;;;;;;;6.50;4.68;;;;;;;16.65;77.70;101375.47;7402978;19;20384;-68
2023/07/19 03:14:42;;;;;;;6.70;4.05;;;;;;;16.63;77.47;101366.66;7402331;19;19922;-69
2023/07/19 03:17:11;;;;;;;4.70;3.60;;;;;;;16.60;77.55;101384.22;7402284;19;19923;-68
2023/07/19 03:19:40;;;;;;;5.65;4.07;;;;;;;16.60;77.42;101377.94;7400543;19;19998;-68
2023/07/19 03:22:11;;;;;;;6.78;4.40;;;;;;;16.59;77.47;101379.81;7402850;19;20351;-69
2023/07/19 03:24:39;;;;;;;6.47;4.25;;;;;;;16.60;77.14;101384.22;7401418;19;20285;-68
2023/07/19 03:27:09;;;;;;;4.88;3.70;;;;;;;16.61;76.85;101385.88;7402917;19;19923;-68
2023/07/19 03:29:37;;;;;;;7.28;4.35;;;;;;;16.61;77.00;101380.44;7399825;19;19935;-68
2023/07/19 03:32:07;;;;;;;6.07;3.95;;;;;;;16.60;77.20;101378.78;7400498;19;19919;-67
2023/07/19 03:34:36;;;;;;;5.90;3.67;;;;;;;16.58;77.66;101388.19;7398601;19;19942;-67
2023/07/19 03:37:05;;;;;;;5.45;3.85;;;;;;;16.56;77.66;101377.50;7403152;19;19939;-67
2023/07/19 03:39:36;;;;;;;5.43;3.42;;;;;;;16.56;77.95;101382.09;7399208;19;19925;-67
2023/07/19 03:42:04;;;;;;;6.22;4.25;;;;;;;16.55;78.26;101377.69;7397104;19;19934;-68
2023/07/19 03:44:33;;;;;;;6.35;4.22;;;;;;;16.54;78.15;101381.44;7400899;19;19922;-68
2023/07/19 03:47:02;;;;;;;7.40;4.03;;;;;;;16.51;78.15;101384.56;7402620;19;19915;-67
2023/07/19 03:49:31;;;;;;;6.70;4.07;;;;;;;16.49;78.21;101386.66;7401227;19;19918;-67
2023/07/19 03:51:59;;;;;;;5.65;4.10;;;;;;;16.45;78.47;101382.66;7400957;19;19926;-67
2023/07/19 03:54:28;;;;;;;6.68;4.13;;;;;;;16.43;78.31;101379.31;7398102;19;20308;-68
2023/07/19 03:57:00;;;;;;;4.38;3.35;;;;;;;16.41;78.37;101378.66;7400063;19;19914;-68
2023/07/19 03:59:29;;;;;;;4.82;3.80;;;;;;;16.39;78.46;101369.88;7398732;19;19921;-67
2023/07/19 04:01:58;;;;;;;5.68;4.20;;;;;;;16.41;78.91;101371.34;7398160;19;19918;-67
2023/07/19 04:04:27;;;;;;;5.82;3.83;;;;;;;16.40;78.29;101366.94;7401240;19;19915;-68
2023/07/19 04:06:55;;;;;;;7.40;4.13;;;;;;;16.41;78.60;101371.34;7401500;19;20288;-68
2023/07/19 04:09:24;;;;;;;4.53;3.28;;;;;;;16.43;78.26;101368.44;7401406;19;20292;-68
2023/07/19 04:11:52;;;;;;;6.10;3.70;;;;;;;16.41;78.54;101374.06;7399987;19;20609;-68
2023/07/19 04:14:24;;;;;;;5.03;3.97;;;;;;;16.41;78.36;101379.50;7399045;19;19918;-67
2023/07/19 04:16:52;;;;;;;10.48;5.65;;;;;;;16.40;78.25;101375.09;7401858;19;20316;-67
2023/07/19 04:19:21;;;;;;;4.78;3.85;;;;;;;16.41;78.46;101374.06;7400043;19;19923;-67
2023/07/19 04:21:49;;;;;;;4.70;3.70;;;;;;;16.40;78.70;101366.94;7399202;19;19923;-68
2023/07/19 04:24:18;;;;;;;6.72;4.53;;;;;;;16.38;78.64;101371.75;7400916;19;19955;-67
2023/07/19 04:26:47;;;;;;;5.22;4.10;;;;;;;16.37;78.76;101367.38;7399604;19;19926;-67
2023/07/19 04:29:15;;;;;;;7.75;4.15;;;;;;;16.38;78.59;101369.03;7401496;19;19922;-67
2023/07/19 04:31:46;;;;;;;7.88;4.43;;;;;;;16.39;78.98;101364.44;7399764;19;19922;-67
2023/07/19 04:34:15;;;;;;;6.50;4.40;;;;;;;16.39;78.83;101380.75;7399875;19;19942;-67
2023/07/19 04:36:46;;;;;;;5.85;3.83;;;;;;;16.42;78.73;101370.31;7397745;19;19926;-68
2023/07/19 04:39:14;;;;;;;7.20;4.35;;;;;;;16.41;78.41;101363.19;7401339;19;19919;-67
2023/07/19 04:41:44;;;;;;;5.30;4.20;;;;;;;16.44;78.68;101361.97;7400479;19;19914;-67
2023/07/19 04:44:12;;;;;;;8.57;3.67;;;;;;;16.45;78.50;101358.19;7401554;19;19921;-68
2023/07/19 04:46:41;;;;;;;8.02;3.90;;;;;;;16.47;78.36;101361.53;7400409;19;19954;-68
2023/07/19 04:49:12;;;;;;;8.10;4.80;;;;;;;16.47;78.42;101367.84;7400162;19;19922;-67
2023/07/19 04:51:41;;;;;;;6.82;4.45;;;;;;;16.50;78.58;101361.13;7399030;19;19926;-69
2023/07/19 04:54:10;;;;;;;7.32;4.22;;;;;;;16.54;78.42;101371.41;7399012;19;19915;-69
2023/07/19 04:56:38;;;;;;;6.10;3.67;;;;;;;16.59;78.43;101365.38;7399844;19;19926;-69
2023/07/19 04:59:08;;;;;;;7.32;3.83;;;;;;;16.61;77.85;101366.84;7399050;19;19925;-69
2023/07/19 05:01:36;;;;;;;8.48;4.00;;;;;;;16.63;78.01;101366.66;7399863;19;19922;-69
2023/07/19 05:04:05;;;;;;;6.63;3.90;;;;;;;16.67;77.62;101363.31;7399429;19;19939;-68
2023/07/19 05:06:37;;;;;;;9.10;4.40;;;;;;;16.74;78.05;101369.59;7397756;19;19923;-69
2023/07/19 05:09:08;;;;;;;5.88;4.07;;;;;;;16.77;77.62;101362.94;7397933;19;19923;-69
2023/07/19 05:11:37;;;;;;;4.03;3.58;;;;;;;16.82;77.80;101373.19;7399151;19;20265;-68
2023/07/19 05:14:06;;;;;;;6.38;4.47;;;;;;;16.84;77.42;101369.22;7398327;19;19938;-69
2023/07/19 05:16:36;;;;;;;6.25;4.35;;;;;;;16.85;77.75;101370.91;7397440;19;19937;-68
2023/07/19 05:19:05;;;;;;;6.43;4.35;;;;;;;16.86;77.60;101366.31;7400037;19;19939;-70
2023/07/19 05:21:34;;;;;;;8.05;4.07;;;;;;;16.86;77.59;101369.88;7398889;19;19946;-69
2023/07/19 05:24:05;;;;;;;10.43;5.32;;;;;;;16.87;77.48;101371.53;7399074;19;19922;-68
2023/07/19 05:26:34;;;;;;;6.93;4.30;;;;;;;16.90;77.55;101373.84;7397580;19;20279;-68
2023/07/19 05:29:03;;;;;;;6.88;4.25;;;;;;;16.93;77.63;101365.25;7399932;19;19918;-69
2023/07/19 05:31:34;;;;;;;7.40;4.75;;;;;;;16.96;77.50;101373.00;7397856;19;19921;-68
2023/07/19 05:34:03;;;;;;;9.43;4.82;;;;;;;16.97;77.29;101368.41;7397785;19;19927;-69
2023/07/19 05:36:31;;;;;;;8.00;3.83;;;;;;;16.96;77.19;101378.44;7395342;19;19937;-69
2023/07/19 05:39:00;;;;;;;8.93;4.85;;;;;;;16.96;77.44;101366.72;7399138;19;19950;-68
2023/07/19 05:41:31;;;;;;;6.70;4.30;;;;;;;16.96;77.34;101373.00;7397963;19;19918;-69
2023/07/19 05:43:59;;;;;;;8.18;3.85;;;;;;;16.94;77.26;101363.38;7398663;19;20312;-69
2023/07/19 05:46:28;;;;;;;6.15;4.50;;;;;;;16.91;77.85;101367.38;7398634;19;19925;-68
2023/07/19 05:48:57;;;;;;;7.88;4.40;;;;;;;16.95;77.79;101374.06;7398390;19;19922;-69
2023/07/19 05:51:25;;;;;;;7.85;4.15;;;;;;;17.04;77.48;101366.56;7398356;19;19923;-68
2023/07/19 05:53:54;;;;;;;10.13;4.65;;;;;;;17.09;77.57;101373.03;7395927;19;19915;-67
2023/07/19 05:56:23;;;;;;;8.57;4.40;;;;;;;17.12;77.13;101374.53;7397884;19;19974;-68
2023/07/19 05:58:54;;;;;;;5.68;3.78;;;;;;;17.13;77.04;101373.44;7395529;19;19950;-65
2023/07/19 06:01:24;;;;;;;10.32;4.50;;;;;;;17.08;76.83;101368.66;7396226;19;19927;-67
2023/07/19 06:03:53;;;;;;;6.40;3.97;;;;;;;17.06;76.74;101376.19;7391585;19;19927;-68
2023/07/19 06:06:21;;;;;;;6.10;4.43;;;;;;;17.05;77.16;101371.78;7393567;19;19926;-68
2023/07/19 06:08:50;;;;;;;4.47;3.95;;;;;;;17.05;77.30;101379.09;7395525;19;20342;-68
2023/07/19 06:11:18;;;;;;;6.93;3.30;;;;;;;17.03;77.00;101376.59;7395447;19;20292;-69
2023/07/19 06:13:47;;;;;;;5.03;3.30;;;;;;;17.02;77.27;101385.81;7396398;19;19958;-68
2023/07/19 06:16:18;;;;;;;7.32;3.90;;;;;;;17.05;76.98;101377.22;7307827;19;20018;-68
2023/07/19 06:18:47;;;;;;;9.20;4.18;;;;;;;17.08;76.76;101375.97;7396391;19;19926;-68
2023/07/19 06:21:15;;;;;;;7.25;4.00;;;;;;;17.08;76.26;101374.09;7398128;19;20002;-68
2023/07/19 06:23:44;;;;;;;8.45;3.72;;;;;;;17.12;76.45;101380.81;7392441;19;19985;-69
2023/07/19 06:26:14;;;;;;;9.13;3.63;;;;;;;17.18;75.86;101381.84;7393576;19;19939;-70
2023/07/19 06:28:42;;;;;;;5.50;3.60;;;;;;;17.23;75.84;101382.06;7393642;19;20659;-69
2023/07/19 06:31:11;;;;;;;5.13;3.80;;;;;;;17.27;75.23;101377.03;7392544;19;19939;-69
2023/07/19 06:33:42;;;;;;;5.95;3.40;;;;;;;17.28;75.02;101376.00;7394519;19;19922;-70
2023/07/19 06:36:11;;;;;;;7.82;3.75;;;;;;;17.32;74.87;101386.25;7392526;19;19934;-69
2023/07/19 06:38:39;;;;;;;5.03;3.13;;;;;;;17.35;74.85;101374.94;7390471;19;19927;-69
2023/07/19 06:41:08;;;;;;;9.02;3.25;;;;;;;17.37;74.08;101385.63;7392943;19;19923;-69
2023/07/19 06:43:37;;;;;;;5.78;3.33;;;;;;;17.37;73.91;101386.47;7389548;19;19930;-69
2023/07/19 06:46:06;;;;;;;7.63;3.28;;;;;;;17.37;74.06;101380.19;7389624;19;19927;-69
2023/07/19 06:48:34;;;;;;;7.28;4.05;;;;;;;17.34;73.65;101377.88;7389490;19;19951;-69
2023/07/19 06:51:05;;;;;;;6.28;3.15;;;;;;;17.34;72.58;101383.34;7395073;19;19943;-69
2023/07/19 06:53:34;;;;;;;3.85;2.60;;;;;;;17.35;73.29;101383.09;7394702;19;19923;-70
2023/07/19 06:56:03;;;;;;;5.70;3.15;;;;;;;17.34;72.61;101386.06;7388957;19;19943;-69
2023/07/19 06:58:31;;;;;;;4.50;2.72;;;;;;;17.35;72.79;101383.09;7393240;19;19929;-69
2023/07/19 07:01:00;;;;;;;4.25;2.85;;;;;;;17.37;72.26;101386.47;7394998;19;19947;-67
2023/07/19 07:03:29;;;;;;;7.32;2.47;;;;;;;17.38;72.11;101387.31;7391210;19;20602;-68
2023/07/19 07:06:00;;;;;;;5.93;2.90;;;;;;;17.34;71.88;101388.78;7397411;19;19987;-68
2023/07/19 07:08:31;;;;;;;6.97;2.63;;;;;;;17.32;71.67;101388.13;7395090;19;20356;-69
2023/07/19 07:11:02;;;;;;;4.57;3.10;;;;;;;17.29;72.05;101383.97;7398127;19;19925;-69
2023/07/19 07:13:31;;;;;;;6.05;2.65;;;;;;;17.26;71.63;101380.81;7397120;19;19922;-69
2023/07/19 07:16:01;;;;;;;7.32;2.47;;;;;;;17.22;71.69;101394.00;7399114;19;19930;-69
2023/07/19 07:18:30;;;;;;;2.83;1.80;;;;;;;17.12;70.81;101391.69;7402562;19;22974;-69
2023/07/19 07:20:58;;;;;;;2.72;1.45;;;;;;;17.07;70.32;101385.19;7401964;19;19926;-67
2023/07/19 07:23:27;;;;;;;3.58;1.10;;;;;;;17.05;69.98;101393.53;7401779;19;19947;-66
2023/07/19 07:25:58;;;;;;;5.72;1.40;;;;;;;17.03;69.75;101392.94;7402749;19;20407;-67
2023/07/19 07:28:27;;;;;;;3.38;1.00;;;;;;;17.05;69.66;101381.81;7402928;19;19946;-67
2023/07/19 07:30:55;;;;;;;2.67;0.95;;;;;;;17.09;69.36;101383.06;7401728;19;19948;-67
2023/07/19 07:33:24;;;;;;;3.45;1.00;;;;;;;17.14;69.25;101377.84;7399629;19;19947;-67
2023/07/19 07:35:54;;;;;;;4.20;0.90;;;;;;;17.23;69.11;101384.78;7398651;19;19957;-68
2023/07/19 07:38:22;;;;;;;2.53;1.00;;;;;;;17.34;69.21;101380.63;7402560;19;19922;-67
2023/07/19 07:40:51;;;;;;;2.50;0.90;;;;;;;17.42;68.55;101377.69;7401507;19;19947;-68
2023/07/19 07:43:22;;;;;;;3.67;1.23;;;;;;;17.48;68.73;101388.56;7400742;19;19926;-67
2023/07/19 07:45:54;;;;;;;2.60;1.00;;;;;;;17.49;68.91;101390.25;7400086;19;19939;-67
2023/07/19 07:48:23;;;;;;;2.63;1.20;;;;;;;17.59;69.51;101384.41;7401888;19;19929;-67
2023/07/19 07:50:52;;;;;;;1.83;1.23;;;;;;;17.62;68.82;101390.28;7401227;19;19923;-68
2023/07/19 07:53:21;;;;;;;6.03;1.58;;;;;;;17.67;69.00;101393.22;7401566;19;19947;-67
2023/07/19 07:55:50;;;;;;;6.18;1.13;;;;;;;17.66;69.20;101393.41;7398844;19;19943;-67
2023/07/19 07:58:22;;;;;;;5.45;2.05;;;;;;;17.65;68.93;101394.44;7402552;19;20148;-67
2023/07/19 08:00:51;;;;;;;2.25;1.20;;;;;;;17.72;68.98;101400.75;7399974;19;19926;-68
2023/07/19 08:03:19;;;;;;;2.63;1.42;;;;;;;17.80;68.46;101396.97;7400493;19;19919;-67
2023/07/19 08:05:49;;;;;;;4.35;1.00;;;;;;;17.81;68.51;101401.38;7400699;19;19918;-68
2023/07/19 08:08:17;;;;;;;3.47;1.13;;;;;;;17.83;68.30;101391.91;7398299;19;19918;-68
2023/07/19 08:10:46;;;;;;;2.72;1.20;;;;;;;17.92;68.05;101389.81;7400810;19;19930;-67
2023/07/19 08:13:15;;;;;;;3.72;1.10;;;;;;;18.04;68.13;101390.81;7399616;19;20236;-67
2023/07/19 08:15:47;;;;;;;4.90;1.38;;;;;;;18.12;67.23;101380.53;7399247;19;19944;-68
2023/07/19 08:18:15;;;;;;;2.95;1.30;;;;;;;18.20;67.19;101384.09;7398614;19;20251;-68
2023/07/19 08:20:44;;;;;;;1.75;1.20;;;;;;;18.25;67.40;101374.19;7399309;19;19922;-68
2023/07/19 08:23:13;;;;;;;1.52;0.98;;;;;;;18.38;67.03;101374.16;7400086;19;20360;-68
2023/07/19 08:25:43;;;;;;;2.50;1.05;;;;;;;18.47;66.23;101374.75;7400109;19;19927;-68
2023/07/19 08:28:12;;;;;;;1.98;1.10;;;;;;;18.59;66.87;101375.78;7397045;19;19950;-68
2023/07/19 08:30:40;;;;;;;2.95;1.05;;;;;;;18.74;65.82;101376.34;7400096;19;19922;-68
2023/07/19 08:33:12;;;;;;;4.03;1.25;;;;;;;18.82;65.02;101378.81;7397978;19;19922;-68
2023/07/19 08:35:40;;;;;;;4.05;1.50;;;;;;;18.89;65.34;101374.16;7398941;19;19933;-69
2023/07/19 08:38:09;;;;;;;3.47;1.27;;;;;;;18.95;65.38;101376.00;7399827;19;19947;-69
2023/07/19 08:40:41;;;;;;;2.63;1.20;;;;;;;18.98;64.32;101374.72;7400395;19;19946;-69
2023/07/19 08:43:13;;;;;;;2.22;1.10;;;;;;;19.00;64.38;101368.00;7399302;19;19946;-69
2023/07/19 08:45:42;;;;;;;3.10;0.90;;;;;;;19.09;64.49;101370.44;7400250;19;19922;-68
2023/07/19 08:48:14;;;;;;;3.72;1.15;;;;;;;19.03;63.74;101378.47;7399999;19;19918;-68
2023/07/19 08:50:45;;;;;;;1.65;1.05;;;;;;;18.95;65.00;101369.69;7400032;19;19947;-69
2023/07/19 08:53:13;;;;;;;2.85;1.35;;;;;;;18.89;65.42;101371.44;7397728;19;20359;-68
2023/07/19 08:55:42;;;;;;;2.35;0.95;;;;;;;18.90;65.83;101373.06;7398601;19;19919;-68
2023/07/19 08:58:11;;;;;;;1.17;0.63;;;;;;;18.92;64.72;101370.97;7399868;19;19960;-68
2023/07/19 09:00:41;;;;;;;1.50;0.75;;;;;;;18.94;64.54;101373.50;7399679;19;19934;-70
2023/07/19 09:03:09;;;;;;;2.13;0.90;;;;;;;18.94;65.08;101368.03;7399024;19;19948;-68
2023/07/19 09:05:41;;;;;;;2.58;1.13;;;;;;;18.91;63.91;101374.75;7399690;19;19960;-68
2023/07/19 09:08:11;;;;;;;2.17;0.80;;;;;;;18.98;64.08;101383.75;7365013;19;19929;-68
2023/07/19 09:10:40;;;;;;;3.85;1.35;;;;;;;19.06;63.34;101370.91;7396784;19;19915;-68
2023/07/19 09:13:09;;;;;;;3.33;0.90;;;;;;;19.09;63.13;101370.44;7399023;19;19982;-68
2023/07/19 09:15:38;;;;;;;0.93;0.80;;;;;;;19.07;63.80;101367.13;7397807;19;19947;-68
2023/07/19 09:18:07;;;;;;;3.83;0.80;;;;;;;19.07;63.92;101384.31;7398329;19;19958;-68
2023/07/19 09:20:38;;;;;;;4.13;1.80;;;;;;;19.06;62.99;101370.91;7395815;19;19927;-68
2023/07/19 09:23:09;;;;;;;1.17;0.70;;;;;;;19.08;62.29;101374.22;7399736;19;20366;-68
2023/07/19 09:25:52;;;;;;;;;;;;;;;19.01;62.32;101363.38;7400583;19;19930;-68
2023/07/19 09:28:22;;;;;;;1.88;1.00;;;;;;;19.20;62.21;101369.75;7396780;19;19959;-68
2023/07/19 09:30:57;;;;;;;2.15;0.73;;;;;;;19.30;62.23;101361.88;7398358;19;19992;-68
2023/07/19 09:33:28;;;;;;;2.80;0.98;;;;;;;19.45;62.34;101366.00;7397078;19;19932;-68
2023/07/19 09:35:58;;;;;;;4.97;0.93;;;;;;;19.59;62.07;101358.50;7397849;19;19922;-67
2023/07/19 09:38:36;;;;;;;2.30;0.80;;;;;;;19.66;60.22;101366.66;7396968;19;19918;-72
2023/07/19 09:41:06;;;;;;;2.67;0.70;;;;;;;19.77;59.67;101357.69;7395693;19;19976;-68
2023/07/19 09:43:37;;;;;;;2.67;0.70;;;;;;;19.89;60.08;101366.81;7398189;19;19951;-69
2023/07/19 09:46:06;;;;;;;5.07;1.38;;;;;;;19.94;59.95;101364.25;7396288;19;19919;-69
2023/07/19 09:48:35;;;;;;;4.13;1.10;;;;;;;20.05;59.46;101373.63;7397753;19;19922;-69
2023/07/19 09:51:05;;;;;;;2.22;0.70;;;;;;;20.14;59.14;101356.69;7397576;19;20018;-69
2023/07/19 09:53:40;;;;;;;3.47;1.08;;;;;;;20.35;57.85;101366.38;7398603;19;20301;-68
2023/07/19 09:56:12;;;;;;;3.53;0.75;;;;;;;20.47;57.12;101361.78;7394680;19;19926;-69
2023/07/19 09:58:41;;;;;;;4.40;0.88;;;;;;;20.53;57.71;101373.72;7398433;19;19930;-69
2023/07/19 10:01:10;;;;;;;2.35;0.70;;;;;;;20.37;58.18;101359.59;7397696;19;19930;-69
2023/07/19 10:03:39;;;;;;;10.32;2.88;;;;;;;20.09;58.21;101366.63;7397792;19;20549;-68
2023/07/19 10:06:08;;;;;;;5.47;1.30;;;;;;;19.87;60.28;101372.53;7397733;19;19922;-69
2023/07/19 10:08:40;;;;;;;5.35;1.50;;;;;;;19.64;61.45;101382.44;7396856;19;19919;-69
2023/07/19 10:11:24;;;;;;;4.97;1.20;;;;;;;19.55;63.39;101379.16;7396890;19;19914;-69
2023/07/19 10:13:56;;;;;;;2.22;1.30;;;;;;;19.70;63.34;101379.66;7397994;19;19923;-69
2023/07/19 10:16:26;;;;;;;4.57;1.70;;;;;;;19.83;62.38;101374.06;7395576;19;20086;-70
2023/07/19 10:19:13;;;;;;;5.50;1.85;;;;;;;19.80;63.37;101379.97;7395783;19;19927;-69
2023/07/19 10:21:46;;;;;;;8.82;2.22;;;;;;;19.90;63.42;101373.97;7371879;19;20276;-69
2023/07/19 10:24:20;;;;;;;5.35;2.15;;;;;;;20.05;62.70;101376.34;7392935;19;19923;-68
2023/07/19 10:26:49;;;;;;;5.20;1.65;;;;;;;20.18;62.57;101376.22;7393937;19;19922;-69
2023/07/19 10:29:19;;;;;;;2.85;1.50;;;;;;;20.10;62.46;101373.78;7394422;19;19929;-68
2023/07/19 10:31:48;;;;;;;6.40;1.83;;;;;;;20.11;62.79;101391.84;7391595;19;19954;-70
2023/07/19 10:34:17;;;;;;;3.22;1.55;;;;;;;20.21;62.44;101376.59;7374323;19;19923;-67
2023/07/19 10:36:48;;;;;;;5.57;1.63;;;;;;;20.23;61.62;101384.59;7391476;19;19919;-67
2023/07/19 10:39:20;;;;;;;8.50;2.72;;;;;;;20.43;61.52;101374.25;7394486;19;19922;-69
2023/07/19 10:41:52;;;;;;;7.45;2.70;;;;;;;20.55;60.78;101377.03;7396683;19;19976;-69
2023/07/19 10:44:20;;;;;;;4.75;1.33;;;;;;;20.60;61.05;101375.28;7396697;19;20051;-68
2023/07/19 10:46:49;;;;;;;4.78;1.48;;;;;;;20.88;60.71;101373.88;7396835;19;19922;-68
2023/07/19 10:49:18;;;;;;;4.80;1.50;;;;;;;20.81;60.31;101384.91;7386280;19;19914;-67
2023/07/19 10:51:57;;;;;;;4.18;2.03;;;;;;;20.63;60.43;101385.78;7400608;19;19919;-68
2023/07/19 10:54:28;;;;;;;4.10;1.20;;;;;;;20.50;59.23;101375.00;7399230;19;20343;-69
2023/07/19 10:56:58;;;;;;;3.65;1.10;;;;;;;20.74;59.88;101387.75;7398491;19;20002;-69
2023/07/19 10:59:26;;;;;;;6.07;1.70;;;;;;;20.86;59.16;101378.75;7402396;19;19926;-69
2023/07/19 11:01:58;;;;;;;3.85;1.58;;;;;;;20.73;59.51;101377.84;7402042;19;19922;-69
2023/07/19 11:04:26;;;;;;;6.63;1.73;;;;;;;20.64;59.48;101381.13;7398941;19;19951;-69
2023/07/19 11:06:57;;;;;;;3.65;1.17;;;;;;;20.49;60.11;101383.47;7400995;19;19918;-69
2023/07/19 11:09:29;;;;;;;3.20;1.05;;;;;;;20.28;60.68;101381.97;7401094;19;20289;-69
2023/07/19 11:11:58;;;;;;;3.38;1.33;;;;;;;20.16;60.45;101389.28;7401454;19;20751;-69
2023/07/19 11:14:36;;;;;;;3.67;1.25;;;;;;;20.14;59.95;101385.94;7402844;19;19947;-69
2023/07/19 11:17:05;;;;;;;2.75;1.35;;;;;;;20.23;60.30;101381.84;7400739;19;19922;-69
2023/07/19 11:19:38;;;;;;;3.08;1.33;;;;;;;20.28;59.21;101387.44;7400282;19;19994;-69
2023/07/19 11:22:08;;;;;;;3.17;1.27;;;;;;;20.23;59.79;101371.75;7401623;19;20403;-68
2023/07/19 11:24:42;;;;;;;3.35;0.95;;;;;;;20.18;59.46;101365.28;7401606;19;20002;-69
2023/07/19 11:27:12;;;;;;;13.55;1.90;;;;;;;20.19;59.44;101372.41;7397799;19;19943;-69
2023/07/19 11:29:40;;;;;;;3.03;1.08;;;;;;;20.13;60.24;101363.22;7393196;19;19926;-69
2023/07/19 11:32:16;;;;;;;2.20;1.17;;;;;;;20.12;60.24;101366.16;7397549;19;19963;-70
2023/07/19 11:34:49;;;;;;;2.65;1.15;;;;;;;20.09;59.74;101378.41;7401022;19;19943;-69